sensor_id;sensor_type;location;lat;lon;timestamp;P1;durP1;ratioP1;P2;durP2;ratioP2
57535;SDS011;43361;49.790;8.960;2023-04-12T00:01:47;2.65;;;1.38;;
57535;SDS011;43361;49.790;8.960;2023-04-12T00:11:49;3.70;;;1.65;;
57535;SDS011;43361;49.790;8.960;2023-04-12T00:21:49;3.75;;;1.40;;
57535;SDS011;43361;49.790;8.960;2023-04-12T00:31:51;3.17;;;1.45;;
57535;SDS011;43361;49.790;8.960;2023-04-12T00:41:51;5.15;;;1.50;;
57535;SDS011;43361;49.790;8.960;2023-04-12T00:51:53;2.45;;;1.20;;
57535;SDS011;43361;49.790;8.960;2023-04-12T01:01:54;5.95;;;1.40;;
57535;SDS011;43361;49.790;8.960;2023-04-12T01:11:59;2.95;;;1.25;;
57535;SDS011;43361;49.790;8.960;2023-04-12T01:22:05;4.03;;;1.38;;
57535;SDS011;43361;49.790;8.960;2023-04-12T01:32:09;3.25;;;1.25;;
57535;SDS011;43361;49.790;8.960;2023-04-12T01:42:10;3.05;;;1.65;;
57535;SDS011;43361;49.790;8.960;2023-04-12T01:52:12;3.15;;;1.20;;
57535;SDS011;43361;49.790;8.960;2023-04-12T02:02:15;6.50;;;1.30;;
57535;SDS011;43361;49.790;8.960;2023-04-12T02:12:17;3.33;;;1.30;;
57535;SDS011;43361;49.790;8.960;2023-04-12T02:22:17;2.33;;;1.00;;
57535;SDS011;43361;49.790;8.960;2023-04-12T02:32:19;2.53;;;1.20;;
57535;SDS011;43361;49.790;8.960;2023-04-12T02:42:20;2.97;;;1.13;;
57535;SDS011;43361;49.790;8.960;2023-04-12T02:52:21;2.85;;;1.30;;
57535;SDS011;43361;49.790;8.960;2023-04-12T03:02:22;2.10;;;1.10;;
57535;SDS011;43361;49.790;8.960;2023-04-12T03:12:24;2.63;;;1.25;;
57535;SDS011;43361;49.790;8.960;2023-04-12T03:22:24;2.92;;;1.10;;
57535;SDS011;43361;49.790;8.960;2023-04-12T03:32:26;2.42;;;1.05;;
57535;SDS011;43361;49.790;8.960;2023-04-12T03:42:27;2.30;;;0.82;;
57535;SDS011;43361;49.790;8.960;2023-04-12T03:52:29;1.70;;;0.80;;
57535;SDS011;43361;49.790;8.960;2023-04-12T04:02:29;2.28;;;1.00;;
57535;SDS011;43361;49.790;8.960;2023-04-12T04:12:32;1.52;;;0.90;;
57535;SDS011;43361;49.790;8.960;2023-04-12T04:22:32;1.48;;;0.90;;
57535;SDS011;43361;49.790;8.960;2023-04-12T04:32:34;2.40;;;1.00;;
57535;SDS011;43361;49.790;8.960;2023-04-12T04:42:34;3.47;;;0.95;;
57535;SDS011;43361;49.790;8.960;2023-04-12T04:52:37;2.03;;;0.98;;
57535;SDS011;43361;49.790;8.960;2023-04-12T05:02:38;3.47;;;0.80;;
57535;SDS011;43361;49.790;8.960;2023-04-12T05:12:40;1.80;;;0.90;;
57535;SDS011;43361;49.790;8.960;2023-04-12T05:22:40;6.18;;;1.67;;
57535;SDS011;43361;49.790;8.960;2023-04-12T05:32:42;8.32;;;2.03;;
57535;SDS011;43361;49.790;8.960;2023-04-12T05:42:42;12.10;;;2.30;;
57535;SDS011;43361;49.790;8.960;2023-04-12T05:52:44;14.98;;;2.75;;
57535;SDS011;43361;49.790;8.960;2023-04-12T06:02:45;13.20;;;3.20;;
57535;SDS011;43361;49.790;8.960;2023-04-12T06:12:47;12.65;;;3.17;;
57535;SDS011;43361;49.790;8.960;2023-04-12T06:22:47;9.93;;;3.10;;
57535;SDS011;43361;49.790;8.960;2023-04-12T06:32:49;9.55;;;2.83;;
57535;SDS011;43361;49.790;8.960;2023-04-12T06:42:49;9.90;;;2.65;;
57535;SDS011;43361;49.790;8.960;2023-04-12T06:52:51;10.75;;;3.05;;
57535;SDS011;43361;49.790;8.960;2023-04-12T07:02:52;10.02;;;2.80;;
57535;SDS011;43361;49.790;8.960;2023-04-12T07:12:53;11.32;;;3.22;;
57535;SDS011;43361;49.790;8.960;2023-04-12T07:22:54;12.05;;;3.35;;
57535;SDS011;43361;49.790;8.960;2023-04-12T07:32:55;12.75;;;3.55;;
57535;SDS011;43361;49.790;8.960;2023-04-12T07:42:56;8.05;;;2.97;;
57535;SDS011;43361;49.790;8.960;2023-04-12T07:53:10;7.78;;;2.92;;
57535;SDS011;43361;49.790;8.960;2023-04-12T08:03:16;10.10;;;3.03;;
57535;SDS011;43361;49.790;8.960;2023-04-12T08:13:18;8.10;;;2.80;;
57535;SDS011;43361;49.790;8.960;2023-04-12T08:23:19;6.70;;;2.67;;
57535;SDS011;43361;49.790;8.960;2023-04-12T08:33:21;7.05;;;2.88;;
57535;SDS011;43361;49.790;8.960;2023-04-12T08:43:21;7.30;;;2.80;;
57535;SDS011;43361;49.790;8.960;2023-04-12T08:53:23;5.97;;;2.47;;
57535;SDS011;43361;49.790;8.960;2023-04-12T09:03:23;5.82;;;2.53;;
57535;SDS011;43361;49.790;8.960;2023-04-12T09:13:32;7.28;;;2.25;;
57535;SDS011;43361;49.790;8.960;2023-04-12T09:23:33;8.43;;;2.20;;
57535;SDS011;43361;49.790;8.960;2023-04-12T09:33:38;44.38;;;16.05;;
57535;SDS011;43361;49.790;8.960;2023-04-12T09:43:38;179.60;;;90.35;;
57535;SDS011;43361;49.790;8.960;2023-04-12T09:53:40;261.90;;;118.60;;
57535;SDS011;43361;49.790;8.960;2023-04-12T10:03:43;180.15;;;87.22;;
57535;SDS011;43361;49.790;8.960;2023-04-12T10:13:45;157.85;;;75.22;;
57535;SDS011;43361;49.790;8.960;2023-04-12T10:23:46;159.02;;;76.55;;
57535;SDS011;43361;49.790;8.960;2023-04-12T10:33:48;157.13;;;74.78;;
57535;SDS011;43361;49.790;8.960;2023-04-12T10:43:49;80.57;;;38.95;;
57535;SDS011;43361;49.790;8.960;2023-04-12T10:53:52;75.13;;;35.13;;
57535;SDS011;43361;49.790;8.960;2023-04-12T11:04:12;63.42;;;30.63;;
57535;SDS011;43361;49.790;8.960;2023-04-12T11:14:14;58.10;;;27.52;;
57535;SDS011;43361;49.790;8.960;2023-04-12T11:24:15;53.72;;;25.67;;
57535;SDS011;43361;49.790;8.960;2023-04-12T11:34:17;42.33;;;22.40;;
57535;SDS011;43361;49.790;8.960;2023-04-12T11:44:17;42.08;;;21.30;;
57535;SDS011;43361;49.790;8.960;2023-04-12T11:54:20;44.88;;;21.42;;
57535;SDS011;43361;49.790;8.960;2023-04-12T12:04:27;36.35;;;18.40;;
57535;SDS011;43361;49.790;8.960;2023-04-12T12:14:31;32.55;;;17.35;;
57535;SDS011;43361;49.790;8.960;2023-04-12T12:24:32;30.58;;;16.40;;
57535;SDS011;43361;49.790;8.960;2023-04-12T12:34:34;30.80;;;15.55;;
57535;SDS011;43361;49.790;8.960;2023-04-12T12:44:34;31.67;;;15.07;;
57535;SDS011;43361;49.790;8.960;2023-04-12T12:54:36;32.60;;;15.00;;
57535;SDS011;43361;49.790;8.960;2023-04-12T13:04:36;25.70;;;12.77;;
57535;SDS011;43361;49.790;8.960;2023-04-12T13:14:39;23.17;;;11.63;;
57535;SDS011;43361;49.790;8.960;2023-04-12T13:24:40;23.73;;;10.88;;
57535;SDS011;43361;49.790;8.960;2023-04-12T13:34:42;21.80;;;10.38;;
57535;SDS011;43361;49.790;8.960;2023-04-12T13:44:43;18.25;;;10.35;;
57535;SDS011;43361;49.790;8.960;2023-04-12T13:54:46;18.75;;;9.88;;
57535;SDS011;43361;49.790;8.960;2023-04-12T14:04:49;15.43;;;9.02;;
57535;SDS011;43361;49.790;8.960;2023-04-12T14:14:55;15.82;;;8.90;;
57535;SDS011;43361;49.790;8.960;2023-04-12T14:24:55;17.60;;;8.10;;
57535;SDS011;43361;49.790;8.960;2023-04-12T14:34:57;25.70;;;7.80;;
57535;SDS011;43361;49.790;8.960;2023-04-12T14:44:59;13.23;;;7.45;;
57535;SDS011;43361;49.790;8.960;2023-04-12T14:55:00;13.75;;;7.22;;
57535;SDS011;43361;49.790;8.960;2023-04-12T15:05:01;20.98;;;8.75;;
57535;SDS011;43361;49.790;8.960;2023-04-12T15:15:08;14.30;;;7.07;;
57535;SDS011;43361;49.790;8.960;2023-04-12T15:25:08;13.07;;;6.85;;
57535;SDS011;43361;49.790;8.960;2023-04-12T15:35:11;16.52;;;7.32;;
57535;SDS011;43361;49.790;8.960;2023-04-12T15:45:11;19.58;;;7.28;;
57535;SDS011;43361;49.790;8.960;2023-04-12T15:55:14;13.60;;;6.30;;
57535;SDS011;43361;49.790;8.960;2023-04-12T16:05:19;23.25;;;8.68;;
57535;SDS011;43361;49.790;8.960;2023-04-12T16:15:21;574.78;;;187.02;;
57535;SDS011;43361;49.790;8.960;2023-04-12T16:25:21;434.70;;;132.90;;
57535;SDS011;43361;49.790;8.960;2023-04-12T16:35:23;341.20;;;100.95;;
57535;SDS011;43361;49.790;8.960;2023-04-12T16:45:23;279.33;;;88.07;;
57535;SDS011;43361;49.790;8.960;2023-04-12T16:55:25;273.90;;;82.95;;
57535;SDS011;43361;49.790;8.960;2023-04-12T17:05:26;246.18;;;75.93;;
57535;SDS011;43361;49.790;8.960;2023-04-12T17:15:28;220.15;;;70.72;;
57535;SDS011;43361;49.790;8.960;2023-04-12T17:25:29;196.88;;;62.85;;
57535;SDS011;43361;49.790;8.960;2023-04-12T17:35:31;175.20;;;57.58;;
57535;SDS011;43361;49.790;8.960;2023-04-12T17:45:32;166.48;;;54.75;;
57535;SDS011;43361;49.790;8.960;2023-04-12T17:55:34;136.30;;;44.63;;
57535;SDS011;43361;49.790;8.960;2023-04-12T18:15:38;118.75;;;38.20;;
57535;SDS011;43361;49.790;8.960;2023-04-12T18:25:39;105.78;;;35.75;;
57535;SDS011;43361;49.790;8.960;2023-04-12T18:35:41;92.75;;;32.38;;
57535;SDS011;43361;49.790;8.960;2023-04-12T18:45:42;86.20;;;31.40;;
57535;SDS011;43361;49.790;8.960;2023-04-12T18:55:45;78.55;;;26.80;;
57535;SDS011;43361;49.790;8.960;2023-04-12T19:05:45;78.43;;;26.80;;
57535;SDS011;43361;49.790;8.960;2023-04-12T19:15:48;69.78;;;24.60;;
57535;SDS011;43361;49.790;8.960;2023-04-12T19:25:49;62.83;;;23.25;;
57535;SDS011;43361;49.790;8.960;2023-04-12T19:35:51;59.70;;;22.02;;
57535;SDS011;43361;49.790;8.960;2023-04-12T19:45:54;55.97;;;20.17;;
57535;SDS011;43361;49.790;8.960;2023-04-12T19:55:58;51.25;;;19.70;;
57535;SDS011;43361;49.790;8.960;2023-04-12T20:05:58;42.92;;;16.85;;
57535;SDS011;43361;49.790;8.960;2023-04-12T20:16:04;45.13;;;16.42;;
57535;SDS011;43361;49.790;8.960;2023-04-12T20:26:06;41.38;;;15.75;;
57535;SDS011;43361;49.790;8.960;2023-04-12T20:36:09;35.85;;;14.82;;
57535;SDS011;43361;49.790;8.960;2023-04-12T20:46:09;36.00;;;14.68;;
57535;SDS011;43361;49.790;8.960;2023-04-12T20:56:16;32.67;;;13.68;;
57535;SDS011;43361;49.790;8.960;2023-04-12T21:06:19;31.10;;;13.57;;
57535;SDS011;43361;49.790;8.960;2023-04-12T21:16:21;30.70;;;12.82;;
57535;SDS011;43361;49.790;8.960;2023-04-12T21:26:23;30.40;;;12.68;;
57535;SDS011;43361;49.790;8.960;2023-04-12T21:36:26;29.35;;;11.35;;
57535;SDS011;43361;49.790;8.960;2023-04-12T21:46:27;25.50;;;11.23;;
57535;SDS011;43361;49.790;8.960;2023-04-12T21:56:29;28.00;;;10.77;;
57535;SDS011;43361;49.790;8.960;2023-04-12T22:06:29;22.08;;;9.52;;
57535;SDS011;43361;49.790;8.960;2023-04-12T22:16:31;21.63;;;9.10;;
57535;SDS011;43361;49.790;8.960;2023-04-12T22:26:31;20.92;;;8.73;;
57535;SDS011;43361;49.790;8.960;2023-04-12T22:36:34;18.58;;;7.93;;
57535;SDS011;43361;49.790;8.960;2023-04-12T22:46:36;16.95;;;7.45;;
57535;SDS011;43361;49.790;8.960;2023-04-12T22:56:39;14.02;;;6.75;;
57535;SDS011;43361;49.790;8.960;2023-04-12T23:06:46;17.33;;;7.28;;
57535;SDS011;43361;49.790;8.960;2023-04-12T23:16:48;16.87;;;7.43;;
57535;SDS011;43361;49.790;8.960;2023-04-12T23:26:50;15.60;;;7.32;;
57535;SDS011;43361;49.790;8.960;2023-04-12T23:36:52;13.52;;;6.05;;
57535;SDS011;43361;49.790;8.960;2023-04-12T23:46:54;12.30;;;6.00;;
57535;SDS011;43361;49.790;8.960;2023-04-12T23:56:55;12.43;;;5.60;;
